Time;durP1;ratioP1;P1;durP2;ratioP2;P2;SDS_P1;SDS_P2;PMS_P1;PMS_P2;Temp;Humidity;BMP_temperature;BMP_pressure;BME280_temperature;BME280_humidity;BME280_pressure;Samples;Min_cycle;Max_cycle;Signal;HPM_P1;HPM_P2
2021/07/04 00:02:04;;;;;;;7.57;5.17;;;21.30;82.50;;;;;;5077623;28;20148;-73
2021/07/04 00:04:52;;;;;;;8.80;6.03;;;21.30;82.80;;;;;;5073326;28;20313;-73
2021/07/04 00:07:36;;;;;;;9.05;5.38;;;21.30;83.10;;;;;;5076354;28;20054;-73
2021/07/04 00:10:29;;;;;;;6.60;5.55;;;21.30;83.20;;;;;;5075255;28;20095;-74
2021/07/04 00:13:14;;;;;;;8.18;5.50;;;21.40;83.50;;;;;;5075603;28;20043;-73
2021/07/04 00:15:59;;;;;;;9.25;5.22;;;21.30;83.70;;;;;;5076979;28;20440;-73
2021/07/04 00:18:43;;;;;;;7.53;4.93;;;21.30;83.80;;;;;;5078083;28;20035;-73
2021/07/04 00:21:27;;;;;;;7.60;5.30;;;21.30;84.10;;;;;;5074258;28;20086;-73
2021/07/04 00:24:12;;;;;;;6.57;5.55;;;21.30;84.20;;;;;;5075707;28;20102;-74
2021/07/04 00:26:56;;;;;;;6.95;5.82;;;21.30;84.50;;;;;;5074081;28;20032;-73
2021/07/04 00:29:40;;;;;;;7.40;5.43;;;21.30;84.70;;;;;;5074442;28;20082;-73
2021/07/04 00:32:24;;;;;;;6.20;5.03;;;21.30;84.90;;;;;;5075836;28;20509;-72
2021/07/04 00:35:10;;;;;;;8.27;5.80;;;21.30;85.00;;;;;;5071071;28;20031;-73
2021/07/04 00:37:55;;;;;;;6.78;5.53;;;21.30;85.10;;;;;;5072473;28;20112;-72
2021/07/04 00:40:40;;;;;;;9.23;6.32;;;21.30;85.40;;;;;;5071266;28;20028;-73
2021/07/04 00:43:25;;;;;;;7.80;5.82;;;21.30;85.60;;;;;;5072517;28;20570;-72
2021/07/04 00:46:09;;;;;;;7.70;5.87;;;21.30;85.70;;;;;;5072615;28;20063;-76
2021/07/04 00:48:35;;;;;;;10.45;6.35;;;21.30;85.80;;;;;;5067139;28;20041;-74
2021/07/04 00:51:22;;;;;;;9.20;6.18;;;21.30;86.10;;;;;;5072213;28;20056;-74
2021/07/04 00:54:06;;;;;;;9.02;6.70;;;21.30;86.20;;;;;;5075416;28;20079;-75
2021/07/04 00:56:50;;;;;;;7.75;5.93;;;21.30;86.40;;;;;;5077012;28;20082;-75
2021/07/04 00:59:35;;;;;;;13.63;6.72;;;21.40;86.40;;;;;;5072680;28;20031;-75
2021/07/04 01:02:19;;;;;;;9.63;6.78;;;21.30;86.50;;;;;;5074425;28;20166;-75
2021/07/04 01:05:10;;;;;;;7.72;6.63;;;21.30;86.60;;;;;;5072652;28;20046;-75
2021/07/04 01:07:55;;;;;;;8.70;6.40;;;21.30;86.80;;;;;;5073808;28;20126;-75
2021/07/04 01:10:39;;;;;;;;;;;21.30;86.90;;;;;;5077877;28;20032;-74
2021/07/04 01:13:24;;;;;;;8.18;6.57;;;21.30;86.00;;;;;;5078513;28;19927;-74
2021/07/04 01:16:08;;;;;;;;;;;21.30;87.00;;;;;;5077013;28;20050;-74
2021/07/04 01:18:53;;;;;;;7.60;6.22;;;21.30;86.00;;;;;;5075946;28;19916;-74
2021/07/04 01:21:39;;;;;;;11.98;5.95;;;21.30;87.00;;;;;;5074080;28;20039;-73
2021/07/04 01:24:25;;;;;;;8.13;6.47;;;21.20;87.50;;;;;;5071663;28;20034;-74
2021/07/04 01:27:09;;;;;;;7.30;6.00;;;21.20;87.60;;;;;;5051672;28;20444;-73
2021/07/04 01:29:53;;;;;;;7.83;6.53;;;21.30;87.70;;;;;;5056040;28;20070;-73
2021/07/04 01:32:18;;;;;;;8.65;5.80;;;21.30;87.80;;;;;;5071019;28;20025;-73
2021/07/04 01:35:03;;;;;;;8.82;6.47;;;21.20;88.00;;;;;;5071348;28;20380;-73
2021/07/04 01:37:48;;;;;;;11.55;6.10;;;21.30;88.10;;;;;;5051655;28;20442;-73
2021/07/04 01:40:33;;;;;;;9.90;5.82;;;21.20;88.20;;;;;;5054455;28;20028;-74
2021/07/04 01:43:18;;;;;;;7.80;5.97;;;21.20;88.30;;;;;;5070804;28;20048;-74
2021/07/04 01:46:02;;;;;;;8.75;6.20;;;21.20;88.60;;;;;;5070270;28;20483;-74
2021/07/04 01:48:46;;;;;;;8.27;6.33;;;21.20;88.70;;;;;;5070983;28;20040;-74
2021/07/04 01:51:30;;;;;;;8.77;6.43;;;21.20;88.70;;;;;;5062699;28;20654;-74
2021/07/04 01:54:14;;;;;;;11.70;7.10;;;21.10;88.80;;;;;;5039732;28;20322;-74
2021/07/04 01:56:58;;;;;;;10.20;6.80;;;21.10;89.00;;;;;;5066999;28;20332;-74
2021/07/04 01:59:45;;;;;;;14.30;7.53;;;21.10;89.10;;;;;;5070343;28;20093;-74
2021/07/04 02:02:29;;;;;;;8.40;6.70;;;21.10;89.30;;;;;;5071196;28;20270;-73
2021/07/04 02:05:13;;;;;;;9.20;6.93;;;21.10;89.40;;;;;;5070134;28;20094;-73
2021/07/04 02:07:58;;;;;;;9.25;6.32;;;21.10;89.50;;;;;;5051186;28;20067;-72
2021/07/04 02:10:44;;;;;;;11.63;7.05;;;21.10;89.70;;;;;;5055927;28;20492;-72
2021/07/04 02:13:28;;;;;;;10.45;7.55;;;21.00;89.70;;;;;;5071480;28;20055;-73
2021/07/04 02:16:12;;;;;;;7.53;6.00;;;21.10;90.00;;;;;;5069878;28;20042;-73
2021/07/04 02:18:56;;;;;;;10.20;7.03;;;21.10;90.00;;;;;;5071312;28;20058;-73
2021/07/04 02:21:40;;;;;;;9.45;6.80;;;21.10;90.00;;;;;;5070511;28;20491;-73
2021/07/04 02:24:24;;;;;;;8.93;7.00;;;21.10;90.10;;;;;;5071038;28;20074;-72
2021/07/04 02:27:10;;;;;;;9.57;6.78;;;21.00;90.20;;;;;;5054777;28;20098;-72
2021/07/04 02:29:54;;;;;;;10.38;7.28;;;21.00;90.20;;;;;;5071060;28;20055;-72
2021/07/04 02:32:38;;;;;;;8.60;6.97;;;21.00;90.30;;;;;;5051133;28;20028;-73
2021/07/04 02:35:23;;;;;;;9.00;7.10;;;21.00;90.30;;;;;;5053438;28;20148;-73
2021/07/04 02:38:08;;;;;;;9.65;7.03;;;21.00;90.30;;;;;;5071142;28;20154;-74
2021/07/04 02:40:53;;;;;;;8.30;7.03;;;21.00;90.40;;;;;;5069396;28;20039;-74
2021/07/04 02:43:37;;;;;;;;;;;21.00;90.40;;;;;;5056139;28;20063;-74
2021/07/04 02:46:21;;;;;;;8.55;6.93;;;21.00;90.00;;;;;;5069905;28;19912;-74
2021/07/04 02:49:05;;;;;;;10.67;7.97;;;21.00;90.40;;;;;;5071146;28;20039;-73
2021/07/04 02:51:49;;;;;;;7.57;6.75;;;21.00;90.50;;;;;;5071854;28;20301;-74
2021/07/04 02:54:33;;;;;;;8.33;7.47;;;21.00;90.50;;;;;;5074418;28;20043;-74
2021/07/04 02:57:17;;;;;;;10.25;6.93;;;21.00;90.60;;;;;;5074014;28;20036;-74
2021/07/04 03:00:03;;;;;;;8.47;7.13;;;21.00;90.60;;;;;;5074189;28;20097;-73
2021/07/04 03:02:47;;;;;;;8.82;7.22;;;21.00;90.60;;;;;;5074019;28;20048;-73
2021/07/04 03:05:31;;;;;;;9.38;7.03;;;21.00;90.70;;;;;;5073358;28;20079;-75
2021/07/04 03:08:15;;;;;;;10.33;7.40;;;21.00;90.70;;;;;;5074502;28;20091;-75
2021/07/04 03:10:59;;;;;;;10.60;6.70;;;21.00;90.70;;;;;;5073552;28;20048;-75
2021/07/04 03:13:43;;;;;;;8.20;7.13;;;21.00;90.70;;;;;;5074169;28;20059;-74
2021/07/04 03:16:27;;;;;;;8.18;6.47;;;21.10;90.70;;;;;;5072690;28;20036;-76
2021/07/04 03:19:11;;;;;;;9.67;6.37;;;21.10;90.80;;;;;;5074266;28;20071;-76
2021/07/04 03:21:55;;;;;;;8.80;6.60;;;21.10;91.00;;;;;;5073173;28;20318;-75
2021/07/04 03:24:40;;;;;;;10.53;6.93;;;21.10;90.80;;;;;;5072086;28;20329;-76
2021/07/04 03:27:25;;;;;;;9.70;7.28;;;21.10;90.80;;;;;;5072210;28;20094;-76
2021/07/04 03:30:11;;;;;;;10.95;7.25;;;21.10;90.90;;;;;;5073000;28;20047;-75
2021/07/04 03:32:37;;;;;;;9.32;6.95;;;21.10;90.90;;;;;;5058161;28;20108;-75
2021/07/04 03:35:21;;;;;;;10.50;7.20;;;21.00;90.90;;;;;;5055242;28;20062;-74
2021/07/04 03:38:05;;;;;;;9.95;7.10;;;21.10;91.00;;;;;;5073664;28;20680;-75
2021/07/04 03:40:50;;;;;;;10.27;7.17;;;21.10;91.00;;;;;;5072265;28;20050;-74
2021/07/04 03:43:34;;;;;;;9.75;6.93;;;21.10;91.00;;;;;;5073485;28;20090;-74
2021/07/04 03:46:20;;;;;;;10.40;6.77;;;21.10;91.10;;;;;;5071761;28;20039;-74
2021/07/04 03:49:04;;;;;;;8.85;6.88;;;21.10;91.20;;;;;;5072801;28;20286;-74
2021/07/04 03:51:48;;;;;;;10.80;6.90;;;21.10;91.20;;;;;;5072362;28;20129;-74
2021/07/04 03:54:32;;;;;;;10.48;7.53;;;21.10;91.20;;;;;;5070793;28;20039;-74
2021/07/04 03:57:22;;;;;;;9.20;6.95;;;21.10;91.30;;;;;;5072397;28;20170;-74
2021/07/04 04:00:08;;;;;;;11.15;7.07;;;21.10;91.30;;;;;;5072361;28;20038;-74
2021/07/04 04:02:52;;;;;;;8.32;7.32;;;21.10;91.40;;;;;;5052309;28;20716;-75
2021/07/04 04:05:36;;;;;;;10.30;7.15;;;21.10;91.40;;;;;;5056042;28;20058;-76
2021/07/04 04:08:20;;;;;;;10.05;6.88;;;21.10;91.40;;;;;;5073336;28;20031;-75
2021/07/04 04:11:04;;;;;;;14.82;7.30;;;21.20;91.40;;;;;;5072349;28;20090;-73
2021/07/04 04:13:48;;;;;;;11.68;8.40;;;21.20;91.50;;;;;;5073886;28;20120;-73
2021/07/04 04:16:32;;;;;;;12.03;8.03;;;21.30;91.40;;;;;;5073543;28;20055;-73
2021/07/04 04:19:16;;;;;;;11.43;8.30;;;21.30;91.50;;;;;;5075013;28;20671;-73
2021/07/04 04:22:01;;;;;;;9.80;7.33;;;21.30;91.60;;;;;;5085719;28;20055;-77
2021/07/04 04:24:45;;;;;;;;;;;21.30;91.80;;;;;;5088620;28;20082;-77
2021/07/04 04:27:29;;;;;;;9.57;7.43;;;21.30;91.40;;;;;;5087534;28;19915;-77
2021/07/04 04:30:15;;;;;;;12.57;7.85;;;21.40;91.70;;;;;;5078662;28;20093;-74
2021/07/04 04:33:00;;;;;;;10.98;8.80;;;21.40;91.70;;;;;;5080012;28;20035;-74
2021/07/04 04:35:45;;;;;;;11.55;8.45;;;21.40;91.40;;;;;;5080714;28;20044;-74
2021/07/04 04:38:29;;;;;;;12.27;8.80;;;21.40;91.40;;;;;;5073381;28;20090;-75
2021/07/04 04:41:13;;;;;;;11.23;8.27;;;21.40;91.30;;;;;;5072365;28;20063;-75
2021/07/04 04:43:57;;;;;;;10.43;7.83;;;21.40;91.20;;;;;;5072640;28;20348;-75
2021/07/04 04:46:41;;;;;;;10.03;7.70;;;21.40;91.30;;;;;;5071938;28;20277;-75
2021/07/04 04:49:25;;;;;;;9.32;7.90;;;21.30;91.40;;;;;;5072576;28;20043;-74
2021/07/04 04:52:09;;;;;;;10.73;7.97;;;21.30;91.40;;;;;;5071267;28;20040;-74
2021/07/04 04:54:53;;;;;;;17.02;8.13;;;21.30;91.50;;;;;;5072416;28;20586;-75
2021/07/04 04:57:38;;;;;;;12.17;8.73;;;21.30;91.70;;;;;;5052298;28;20106;-75
2021/07/04 05:00:22;;;;;;;10.13;8.55;;;21.20;91.80;;;;;;5054265;28;20039;-74
2021/07/04 05:03:06;;;;;;;13.20;9.00;;;21.20;91.90;;;;;;5072007;28;20036;-74
2021/07/04 05:05:50;;;;;;;12.52;9.50;;;21.20;91.80;;;;;;5071180;28;20318;-75
2021/07/04 05:08:34;;;;;;;12.17;9.00;;;21.10;91.70;;;;;;5071996;28;20043;-76
2021/07/04 05:11:19;;;;;;;8.90;7.23;;;21.10;91.70;;;;;;5070391;28;20320;-74
2021/07/04 05:14:03;;;;;;;10.02;8.18;;;21.10;91.80;;;;;;5071621;28;20316;-73
2021/07/04 05:16:47;;;;;;;14.13;8.80;;;21.10;91.90;;;;;;5070267;28;20113;-74
2021/07/04 05:19:31;;;;;;;11.80;7.87;;;21.10;92.00;;;;;;5072017;28;20031;-74
2021/07/04 05:22:15;;;;;;;12.53;9.10;;;21.10;92.20;;;;;;5069661;28;20323;-73
2021/07/04 05:25:00;;;;;;;11.03;8.60;;;21.10;92.30;;;;;;5070586;28;20852;-75
2021/07/04 05:27:43;;;;;;;10.85;8.73;;;21.10;92.20;;;;;;5071775;28;20308;-78
2021/07/04 05:30:27;;;;;;;10.13;8.65;;;21.20;92.20;;;;;;5070744;28;20562;-76
2021/07/04 05:33:12;;;;;;;13.80;8.70;;;21.20;92.20;;;;;;5071900;28;20078;-76
2021/07/04 05:35:56;;;;;;;13.52;8.27;;;21.30;92.20;;;;;;5070424;28;20542;-77
2021/07/04 05:38:43;;;;;;;11.10;8.23;;;21.30;92.10;;;;;;5069739;28;20082;-78
2021/07/04 05:41:29;;;;;;;12.32;9.73;;;21.40;92.40;;;;;;5068043;28;20529;-75
2021/07/04 05:44:15;;;;;;;11.35;8.75;;;21.50;92.10;;;;;;5069387;28;20044;-74
2021/07/04 05:47:00;;;;;;;13.43;9.80;;;21.50;92.00;;;;;;5067570;28;20107;-75
2021/07/04 05:49:46;;;;;;;14.45;8.68;;;21.60;92.00;;;;;;5067142;28;20508;-74
2021/07/04 05:52:32;;;;;;;12.00;8.77;;;21.70;91.90;;;;;;5062998;28;20388;-74
2021/07/04 05:55:18;;;;;;;12.10;9.00;;;21.70;91.70;;;;;;5066559;28;20040;-73
2021/07/04 05:58:04;;;;;;;13.13;9.93;;;21.90;92.00;;;;;;5068211;28;20078;-74
2021/07/04 06:00:50;;;;;;;10.70;9.23;;;21.90;91.70;;;;;;5067295;28;20445;-75
2021/07/04 06:03:36;;;;;;;16.33;10.80;;;22.00;92.00;;;;;;5067694;28;20496;-75
2021/07/04 06:06:22;;;;;;;12.18;9.30;;;22.10;91.70;;;;;;5061228;28;20033;-74
2021/07/04 06:09:08;;;;;;;12.30;9.45;;;22.10;91.50;;;;;;5066452;28;20021;-74
2021/07/04 06:11:54;;;;;;;11.55;10.18;;;22.30;91.30;;;;;;5052674;28;20044;-74
2021/07/04 06:14:40;;;;;;;14.55;9.75;;;22.40;90.80;;;;;;5066558;28;20052;-74
2021/07/04 06:17:25;;;;;;;11.05;9.20;;;22.40;91.10;;;;;;5066242;28;20052;-76
2021/07/04 06:20:13;;;;;;;12.38;9.70;;;22.50;91.00;;;;;;5065916;28;20044;-74
2021/07/04 06:22:59;;;;;;;12.10;9.13;;;22.60;90.40;;;;;;5065262;28;20400;-75
2021/07/04 06:25:46;;;;;;;13.93;9.18;;;22.70;90.70;;;;;;5065243;28;20083;-74
2021/07/04 06:28:32;;;;;;;12.25;8.10;;;22.80;90.60;;;;;;5064423;28;20402;-75
2021/07/04 06:31:18;;;;;;;11.38;8.10;;;22.90;90.70;;;;;;5070886;28;20476;-73
2021/07/04 06:34:04;;;;;;;11.30;8.65;;;23.00;90.60;;;;;;5070407;28;20036;-75
2021/07/04 06:36:49;;;;;;;11.57;9.02;;;23.10;90.10;;;;;;5067327;28;20028;-77
2021/07/04 06:39:35;;;;;;;11.48;9.23;;;23.20;89.80;;;;;;5070965;28;20411;-77
2021/07/04 06:42:21;;;;;;;11.98;8.93;;;23.30;90.10;;;;;;5070261;28;20031;-74
2021/07/04 06:45:10;;;;;;;10.07;7.95;;;23.40;90.00;;;;;;5055691;28;20106;-76
2021/07/04 06:47:55;;;;;;;10.32;8.23;;;23.50;90.00;;;;;;5067778;28;20028;-76
2021/07/04 06:50:41;;;;;;;12.13;8.25;;;23.60;89.70;;;;;;5064774;28;20029;-76
2021/07/04 06:53:27;;;;;;;11.23;8.27;;;23.80;89.30;;;;;;5065282;28;20032;-76
2021/07/04 06:56:13;;;;;;;9.93;8.60;;;23.90;89.00;;;;;;5069921;28;20032;-76
2021/07/04 06:58:59;;;;;;;12.75;8.35;;;23.90;89.40;;;;;;5070422;28;20111;-76
2021/07/04 07:01:45;;;;;;;9.77;8.02;;;24.00;86.40;;;;;;5068061;28;20032;-76
2021/07/04 07:04:30;;;;;;;11.65;8.02;;;24.10;86.00;;;;;;5068998;28;20140;-75
2021/07/04 07:07:17;;;;;;;9.68;7.47;;;24.20;85.90;;;;;;5070783;28;20388;-74
2021/07/04 07:10:06;;;;;;;9.43;7.35;;;24.20;85.10;;;;;;5070647;28;20058;-74
2021/07/04 07:12:53;;;;;;;13.63;7.82;;;24.30;85.10;;;;;;5065701;28;20032;-75
2021/07/04 07:15:39;;;;;;;10.35;8.07;;;24.30;84.70;;;;;;5061267;28;20024;-74
2021/07/04 07:18:24;;;;;;;12.95;8.93;;;24.30;84.30;;;;;;5068129;28;20033;-75
2021/07/04 07:21:10;;;;;;;12.98;9.38;;;24.30;84.10;;;;;;5061197;28;20602;-74
2021/07/04 07:23:56;;;;;;;7.30;5.97;;;24.30;82.70;;;;;;5071452;28;20037;-73
2021/07/04 07:26:42;;;;;;;8.05;6.32;;;24.30;82.50;;;;;;5072113;28;20089;-74
2021/07/04 07:29:28;;;;;;;12.90;9.23;;;24.30;80.70;;;;;;5071365;28;20107;-74
2021/07/04 07:32:13;;;;;;;6.75;4.00;;;24.30;80.80;;;;;;5061373;28;20456;-74
2021/07/04 07:34:58;;;;;;;5.95;4.70;;;24.30;73.90;;;;;;5072345;28;20098;-68
2021/07/04 07:37:24;;;;;;;6.25;3.92;;;24.30;73.30;;;;;;5070565;28;20075;-68
2021/07/04 07:39:51;;;;;;;4.88;4.03;;;24.30;72.30;;;;;;5093117;28;20028;-68
2021/07/04 07:42:17;;;;;;;5.32;4.72;;;24.30;71.80;;;;;;5055128;28;20029;-68
2021/07/04 07:44:45;;;;;;;7.85;5.47;;;24.30;71.60;;;;;;5070829;28;20035;-68
2021/07/04 07:47:11;;;;;;;7.20;4.50;;;24.30;72.00;;;;;;5072974;28;20025;-68
2021/07/04 07:49:37;;;;;;;6.32;4.13;;;24.30;71.00;;;;;;5072461;28;20376;-68
2021/07/04 07:52:03;;;;;;;11.75;7.15;;;24.30;69.50;;;;;;5071476;28;20024;-68
2021/07/04 07:54:30;;;;;;;11.95;6.72;;;24.30;69.20;;;;;;5071499;28;20039;-68
2021/07/04 07:56:55;;;;;;;7.40;4.55;;;24.30;69.60;;;;;;5073063;28;20059;-68
2021/07/04 07:59:21;;;;;;;7.28;4.78;;;24.30;69.00;;;;;;5071375;28;20455;-68
2021/07/04 08:01:47;;;;;;;6.55;4.38;;;24.30;68.40;;;;;;5072681;28;20467;-68
2021/07/04 08:04:13;;;;;;;7.30;4.88;;;24.30;68.60;;;;;;5053620;28;20499;-68
2021/07/04 08:06:39;;;;;;;10.77;4.47;;;24.40;69.60;;;;;;5073050;28;20036;-68
2021/07/04 08:09:05;;;;;;;5.28;4.32;;;24.40;67.60;;;;;;5070843;28;20056;-68
2021/07/04 08:11:49;;;;;;;;;;;24.40;68.10;;;;;;5070530;28;20488;-68
2021/07/04 08:14:33;;;;;;;7.35;4.13;;;24.40;69.50;;;;;;5061844;28;19915;-69
2021/07/04 08:16:59;;;;;;;7.53;4.78;;;24.40;67.70;;;;;;5071798;28;20033;-68
2021/07/04 08:19:24;;;;;;;8.05;5.38;;;24.50;68.50;;;;;;5072572;28;20025;-68
2021/07/04 08:22:09;;;;;;;5.88;4.57;;;24.50;67.80;;;;;;5071816;28;20507;-68
2021/07/04 08:24:53;;;;;;;4.88;4.13;;;24.50;66.30;;;;;;5071409;28;20079;-68
2021/07/04 08:27:37;;;;;;;5.43;4.03;;;24.50;65.60;;;;;;5052614;28;20035;-69
2021/07/04 08:30:22;;;;;;;5.78;4.20;;;24.50;66.40;;;;;;5056679;28;20133;-68
2021/07/04 08:33:06;;;;;;;;;;;24.50;65.70;;;;;;5072804;28;20059;-68
2021/07/04 08:35:50;;;;;;;5.72;3.88;;;24.60;67.10;;;;;;5069818;28;19918;-68
2021/07/04 08:38:35;;;;;;;8.88;5.32;;;24.60;66.20;;;;;;5071579;28;20094;-67
2021/07/04 08:41:19;;;;;;;6.47;5.07;;;24.60;66.10;;;;;;5071836;28;20081;-68
2021/07/04 08:44:05;;;;;;;6.22;4.35;;;24.80;67.00;;;;;;5071268;28;20123;-67
2021/07/04 08:46:49;;;;;;;6.57;4.40;;;24.90;65.20;;;;;;5070627;28;20599;-68
2021/07/04 08:49:34;;;;;;;5.63;4.55;;;25.00;67.40;;;;;;5071275;28;20443;-68
2021/07/04 08:52:17;;;;;;;13.95;8.90;;;25.20;66.70;;;;;;5071048;28;20039;-68
2021/07/04 08:55:04;;;;;;;11.02;8.65;;;25.30;65.30;;;;;;5072048;28;20043;-67
2021/07/04 08:57:44;;;;;;;8.20;5.53;;;25.40;65.30;;;;;;5067530;28;20040;-68
2021/07/04 09:00:15;;;;;;;10.75;7.00;;;25.60;65.90;;;;;;5071476;28;20043;-67
2021/07/04 09:02:42;;;;;;;8.18;6.32;;;25.70;66.10;;;;;;5070762;28;20100;-68
2021/07/04 09:05:10;;;;;;;5.93;4.82;;;25.90;66.40;;;;;;5070468;28;20049;-68
2021/07/04 09:07:36;;;;;;;6.07;4.53;;;26.10;65.90;;;;;;5082107;28;20059;-68
2021/07/04 09:10:09;;;;;;;7.28;4.85;;;26.30;65.90;;;;;;5082264;28;20044;-68
2021/07/04 09:12:37;;;;;;;7.45;4.90;;;26.50;63.60;;;;;;5062090;28;20067;-68
2021/07/04 09:15:29;;;;;;;6.50;4.22;;;26.70;66.30;;;;;;5067611;28;20052;-68
2021/07/04 09:17:57;;;;;;;7.00;5.80;;;26.90;67.20;;;;;;5068686;28;20048;-68
2021/07/04 09:20:29;;;;;;;7.85;5.07;;;27.00;65.00;;;;;;5069163;28;20362;-68
2021/07/04 09:22:56;;;;;;;5.75;4.28;;;27.10;63.20;;;;;;5069291;28;20036;-68
2021/07/04 09:25:23;;;;;;;6.20;4.50;;;27.20;62.60;;;;;;5070578;28;20122;-68
2021/07/04 09:28:13;;;;;;;5.80;4.50;;;27.20;63.30;;;;;;5071160;28;20029;-68
2021/07/04 09:30:40;;;;;;;5.35;4.32;;;27.40;61.20;;;;;;5070503;28;20025;-68
2021/07/04 09:33:32;;;;;;;5.35;4.07;;;27.30;60.10;;;;;;5070506;28;20069;-68
2021/07/04 09:36:00;;;;;;;5.40;4.72;;;27.30;59.50;;;;;;5069577;28;20033;-68
2021/07/04 09:38:32;;;;;;;6.78;4.22;;;27.20;58.10;;;;;;5070604;28;20159;-69
2021/07/04 09:40:57;;;;;;;7.15;4.03;;;27.20;59.00;;;;;;5071084;28;20033;-68
2021/07/04 09:43:26;;;;;;;7.95;4.50;;;27.10;58.20;;;;;;5068636;28;20495;-68
2021/07/04 09:45:57;;;;;;;5.53;4.35;;;27.10;58.60;;;;;;5069595;28;20082;-68
2021/07/04 09:48:29;;;;;;;6.53;4.30;;;27.00;58.60;;;;;;5070095;28;20032;-68
2021/07/04 09:50:57;;;;;;;4.97;4.22;;;27.00;59.10;;;;;;5066478;28;20105;-68
2021/07/04 09:53:31;;;;;;;4.97;3.80;;;27.00;58.80;;;;;;5071020;28;20037;-68
2021/07/04 09:56:10;;;;;;;6.82;4.55;;;26.90;59.10;;;;;;5071026;28;20090;-69
2021/07/04 09:58:37;;;;;;;5.35;4.38;;;27.00;58.40;;;;;;5070112;28;20029;-68
2021/07/04 10:01:03;;;;;;;6.85;4.55;;;27.00;58.80;;;;;;5070515;28;20032;-68
2021/07/04 10:03:28;;;;;;;4.57;4.07;;;26.90;57.60;;;;;;5073416;28;20055;-68
2021/07/04 10:05:54;;;;;;;5.95;4.63;;;26.90;57.20;;;;;;5073579;28;20106;-69
2021/07/04 10:08:31;;;;;;;5.63;4.40;;;26.70;57.00;;;;;;5072119;28;20198;-69
2021/07/04 10:11:11;;;;;;;6.10;4.53;;;26.70;56.90;;;;;;5060858;28;20070;-69
2021/07/04 10:13:40;;;;;;;5.53;4.50;;;26.60;57.30;;;;;;5062182;28;20237;-69
2021/07/04 10:16:08;;;;;;;5.85;4.20;;;26.60;58.10;;;;;;5070665;28;20479;-69
2021/07/04 10:18:36;;;;;;;6.75;4.60;;;26.70;58.50;;;;;;5072722;28;20040;-69
2021/07/04 10:21:01;;;;;;;6.80;4.75;;;26.60;56.20;;;;;;5071206;28;20120;-56
2021/07/04 10:23:28;;;;;;;6.32;4.30;;;26.60;57.00;;;;;;5071053;28;20090;-57
2021/07/04 10:25:56;;;;;;;6.00;4.50;;;26.70;57.30;;;;;;5071985;28;20052;-54
2021/07/04 10:28:35;;;;;;;5.32;4.57;;;26.70;57.90;;;;;;5074129;28;20032;-56
2021/07/04 10:31:04;;;;;;;7.32;4.75;;;26.80;57.70;;;;;;5074266;28;20024;-55
2021/07/04 10:33:34;;;;;;;7.70;4.53;;;26.80;57.20;;;;;;5073860;28;20107;-54
2021/07/04 10:36:03;;;;;;;6.13;4.35;;;26.80;57.40;;;;;;5074607;28;20491;-55
2021/07/04 10:38:58;;;;;;;6.45;4.05;;;26.90;57.00;;;;;;5074241;28;20032;-56
2021/07/04 10:41:33;;;;;;;7.32;4.60;;;26.90;57.60;;;;;;5068377;28;20090;-56
2021/07/04 10:44:07;;;;;;;5.18;4.20;;;27.00;57.70;;;;;;5070383;28;20376;-55
2021/07/04 10:46:40;;;;;;;6.97;5.07;;;27.10;58.40;;;;;;5073893;28;20036;-57
2021/07/04 10:49:14;;;;;;;4.90;4.40;;;27.20;58.60;;;;;;5072701;28;20024;-56
2021/07/04 10:52:01;;;;;;;5.22;4.18;;;27.30;57.20;;;;;;5070259;28;20032;-56
2021/07/04 10:54:46;;;;;;;5.15;4.55;;;27.20;56.00;;;;;;5072197;28;20457;-54
2021/07/04 10:57:15;;;;;;;5.35;4.03;;;27.20;56.70;;;;;;5072393;28;20032;-56
2021/07/04 11:00:10;;;;;;;7.07;4.40;;;27.30;56.50;;;;;;5071904;28;20500;-57
2021/07/04 11:02:40;;;;;;;5.15;4.35;;;27.30;56.10;;;;;;5073979;28;20025;-52
2021/07/04 11:05:10;;;;;;;6.63;4.22;;;27.30;56.30;;;;;;5071353;28;20033;-53
2021/07/04 11:07:56;;;;;;;6.55;4.90;;;27.40;56.60;;;;;;5071758;28;20043;-57
2021/07/04 11:10:24;;;;;;;5.00;4.18;;;27.40;55.60;;;;;;5071891;28;20496;-54
2021/07/04 11:12:54;;;;;;;4.55;4.13;;;27.40;56.70;;;;;;5071616;28;20028;-55
2021/07/04 11:15:20;;;;;;;6.03;4.45;;;27.30;56.30;;;;;;5068517;28;20099;-54
2021/07/04 11:20:30;;;;;;;5.53;3.80;;;27.50;57.20;;;;;;5071389;28;20048;-56
2021/07/04 11:23:04;;;;;;;6.70;4.90;;;27.50;56.70;;;;;;5072879;28;20041;-56
2021/07/04 11:25:41;;;;;;;6.32;4.70;;;27.50;57.20;;;;;;5068739;28;20082;-57
2021/07/04 11:28:15;;;;;;;6.57;4.40;;;27.50;56.60;;;;;;5067696;28;20025;-55
2021/07/04 11:30:49;;;;;;;6.50;4.55;;;27.40;56.50;;;;;;5072544;28;20104;-56
2021/07/04 11:33:45;;;;;;;7.33;4.50;;;27.30;57.00;;;;;;5073287;28;20020;-53
2021/07/04 11:36:25;;;;;;;5.70;4.50;;;27.20;57.20;;;;;;5056098;28;20067;-53
2021/07/04 11:39:13;;;;;;;5.93;4.05;;;27.30;57.30;;;;;;5053581;28;20059;-53
2021/07/04 11:41:57;;;;;;;5.22;3.92;;;27.30;57.70;;;;;;5056775;28;20163;-52
2021/07/04 11:44:41;;;;;;;5.50;4.20;;;27.40;58.30;;;;;;5073032;28;20110;-56
2021/07/04 11:47:25;;;;;;;5.60;4.22;;;27.40;58.40;;;;;;5072996;28;20139;-55
2021/07/04 11:50:10;;;;;;;4.35;3.95;;;27.40;56.80;;;;;;5072169;28;20063;-55
2021/07/04 11:53:04;;;;;;;;;;;27.40;56.20;;;;;;5072829;28;20032;-55
2021/07/04 11:55:58;;;;;;;5.13;4.50;;;27.30;56.70;;;;;;5064197;28;20391;-53
2021/07/04 11:58:43;;;;;;;4.90;4.00;;;27.20;57.40;;;;;;5067317;28;20039;-54
2021/07/04 12:01:23;;;;;;;4.97;4.47;;;27.20;56.80;;;;;;5065305;28;20032;-53
2021/07/04 12:03:50;;;;;;;5.32;4.22;;;27.10;55.70;;;;;;5070839;28;20032;-53
2021/07/04 12:06:16;;;;;;;7.00;4.35;;;27.10;56.90;;;;;;5070946;28;20044;-55
2021/07/04 12:09:00;;;;;;;6.35;4.20;;;27.10;57.10;;;;;;5062463;28;20424;-54
2021/07/04 12:11:51;;;;;;;5.13;4.63;;;27.10;57.60;;;;;;5071969;28;20132;-55
2021/07/04 12:14:34;;;;;;;6.57;4.32;;;27.30;57.60;;;;;;5070283;28;20111;-54
2021/07/04 12:17:29;;;;;;;6.75;4.35;;;27.30;58.00;;;;;;5068841;28;20028;-55
2021/07/04 12:20:10;;;;;;;6.13;4.25;;;27.40;57.50;;;;;;5065006;28;20029;-56
2021/07/04 12:22:49;;;;;;;5.97;4.25;;;27.40;57.40;;;;;;5073315;28;20036;-56
2021/07/04 12:25:20;;;;;;;4.93;4.07;;;27.60;57.70;;;;;;5069402;28;20473;-55
2021/07/04 12:27:51;;;;;;;5.60;3.90;;;27.60;57.50;;;;;;5069326;28;20036;-54
2021/07/04 12:30:24;;;;;;;5.32;4.13;;;27.70;57.30;;;;;;5069051;28;20040;-54
2021/07/04 12:33:18;;;;;;;4.28;3.83;;;27.80;56.10;;;;;;5073151;28;20081;-51
2021/07/04 12:36:08;;;;;;;4.90;4.40;;;27.90;56.70;;;;;;5067273;28;20112;-55
2021/07/04 12:38:53;;;;;;;5.35;4.55;;;28.00;56.20;;;;;;5065869;28;20081;-53
2021/07/04 12:41:18;;;;;;;6.10;4.05;;;28.10;54.10;;;;;;5066031;28;20106;-53
2021/07/04 12:43:46;;;;;;;6.45;4.03;;;28.10;54.80;;;;;;5068656;28;20037;-52
2021/07/04 12:46:36;;;;;;;5.88;4.22;;;28.10;54.10;;;;;;5078797;28;20081;-52
2021/07/04 12:49:21;;;;;;;7.95;4.40;;;28.20;55.10;;;;;;5055786;28;20078;-51
2021/07/04 12:52:08;;;;;;;5.55;4.55;;;28.30;54.20;;;;;;5062361;28;20027;-56
2021/07/04 12:54:52;;;;;;;5.82;4.40;;;28.40;54.20;;;;;;5072209;28;20117;-54
2021/07/04 12:57:39;;;;;;;6.75;4.05;;;28.40;53.70;;;;;;5070107;28;20031;-57
2021/07/04 13:00:23;;;;;;;6.63;4.00;;;28.40;53.60;;;;;;5067500;28;20098;-56
2021/07/04 13:02:49;;;;;;;4.90;4.40;;;28.40;53.30;;;;;;5070279;28;20430;-55
2021/07/04 13:05:14;;;;;;;5.35;4.80;;;28.40;54.40;;;;;;5070755;28;20052;-54
2021/07/04 13:07:46;;;;;;;5.95;4.57;;;28.40;54.00;;;;;;5069230;28;20460;-55
2021/07/04 13:10:31;;;;;;;6.15;4.30;;;28.40;54.50;;;;;;5082741;28;20032;-53
2021/07/04 13:12:57;;;;;;;6.00;4.00;;;28.40;53.30;;;;;;5071872;28;20064;-54
2021/07/04 13:15:23;;;;;;;5.07;4.55;;;28.50;53.80;;;;;;5078680;28;20097;-54
2021/07/04 13:17:49;;;;;;;5.85;4.75;;;28.50;52.60;;;;;;5082056;28;20420;-53
2021/07/04 13:20:23;;;;;;;5.45;4.40;;;28.50;52.80;;;;;;5070500;28;20142;-51
2021/07/04 13:22:51;;;;;;;6.25;4.22;;;28.50;52.70;;;;;;5068506;28;20112;-58
2021/07/04 13:25:24;;;;;;;7.40;4.38;;;28.50;52.20;;;;;;5075002;28;20051;-52
2021/07/04 13:28:04;;;;;;;5.25;4.00;;;28.50;52.90;;;;;;5069694;28;20028;-56
2021/07/04 13:30:39;;;;;;;7.32;4.60;;;28.50;53.20;;;;;;5072824;28;20058;-56
2021/07/04 13:33:05;;;;;;;6.18;5.03;;;28.60;53.10;;;;;;5073192;28;20024;-55
2021/07/04 13:35:33;;;;;;;6.22;4.70;;;28.70;53.50;;;;;;5074658;28;20036;-55
2021/07/04 13:38:08;;;;;;;5.13;4.00;;;28.80;52.40;;;;;;5082404;28;20028;-56
2021/07/04 13:40:35;;;;;;;6.20;4.35;;;28.70;50.50;;;;;;5076232;28;20032;-55
2021/07/04 13:43:01;;;;;;;5.63;4.28;;;28.70;50.90;;;;;;5072820;28;20044;-55
2021/07/04 13:45:37;;;;;;;5.05;4.32;;;28.70;50.60;;;;;;5075584;28;20025;-52
2021/07/04 13:48:17;;;;;;;5.43;4.40;;;28.80;51.00;;;;;;5072684;28;20073;-56
2021/07/04 13:50:45;;;;;;;6.00;4.53;;;28.80;50.80;;;;;;5077001;28;20028;-57
2021/07/04 13:53:12;;;;;;;5.30;4.30;;;28.90;50.70;;;;;;5066465;28;20063;-50
2021/07/04 13:55:38;;;;;;;9.13;7.25;;;28.90;50.80;;;;;;5065376;28;20049;-54